sensor_id;sensor_type;location;lat;lon;timestamp;temperature;humidity
7232;DHT22;3657;49.630;11.018;2023-09-30T00:00:44;19.70;96.10
7232;DHT22;3657;49.630;11.018;2023-09-30T00:03:11;19.70;96.10
7232;DHT22;3657;49.630;11.018;2023-09-30T00:05:38;19.70;96.10
7232;DHT22;3657;49.630;11.018;2023-09-30T00:08:04;19.70;96.10
7232;DHT22;3657;49.630;11.018;2023-09-30T00:10:33;19.70;96.10
7232;DHT22;3657;49.630;11.018;2023-09-30T00:13:00;19.70;96.10
7232;DHT22;3657;49.630;11.018;2023-09-30T00:15:27;19.70;96.00
7232;DHT22;3657;49.630;11.018;2023-09-30T00:17:54;19.70;96.10
7232;DHT22;3657;49.630;11.018;2023-09-30T00:20:20;19.70;96.10
7232;DHT22;3657;49.630;11.018;2023-09-30T00:22:48;19.70;96.00
7232;DHT22;3657;49.630;11.018;2023-09-30T00:25:14;19.70;96.10
7232;DHT22;3657;49.630;11.018;2023-09-30T00:27:43;19.60;96.00
7232;DHT22;3657;49.630;11.018;2023-09-30T00:30:10;19.70;96.10
7232;DHT22;3657;49.630;11.018;2023-09-30T00:32:36;19.60;96.00
7232;DHT22;3657;49.630;11.018;2023-09-30T00:35:05;19.60;96.00
7232;DHT22;3657;49.630;11.018;2023-09-30T00:37:34;19.60;96.00
7232;DHT22;3657;49.630;11.018;2023-09-30T00:40:01;19.60;96.00
7232;DHT22;3657;49.630;11.018;2023-09-30T00:42:28;19.60;96.00
7232;DHT22;3657;49.630;11.018;2023-09-30T00:44:56;19.50;96.70
7232;DHT22;3657;49.630;11.018;2023-09-30T00:47:23;19.40;96.80
7232;DHT22;3657;49.630;11.018;2023-09-30T00:49:49;19.50;96.30
7232;DHT22;3657;49.630;11.018;2023-09-30T00:52:17;19.40;97.70
7232;DHT22;3657;49.630;11.018;2023-09-30T00:54:45;19.30;96.50
7232;DHT22;3657;49.630;11.018;2023-09-30T00:57:13;19.40;97.00
7232;DHT22;3657;49.630;11.018;2023-09-30T00:59:40;19.40;96.40
7232;DHT22;3657;49.630;11.018;2023-09-30T01:02:08;19.40;96.40
7232;DHT22;3657;49.630;11.018;2023-09-30T01:04:35;19.30;97.70
7232;DHT22;3657;49.630;11.018;2023-09-30T01:07:03;19.30;97.10
7232;DHT22;3657;49.630;11.018;2023-09-30T01:09:30;19.30;97.60
7232;DHT22;3657;49.630;11.018;2023-09-30T01:11:58;19.30;96.50
7232;DHT22;3657;49.630;11.018;2023-09-30T01:14:26;19.30;97.20
7232;DHT22;3657;49.630;11.018;2023-09-30T01:16:53;19.30;97.60
7232;DHT22;3657;49.630;11.018;2023-09-30T01:19:22;19.20;97.60
7232;DHT22;3657;49.630;11.018;2023-09-30T01:21:52;19.20;97.20
7232;DHT22;3657;49.630;11.018;2023-09-30T01:24:20;19.10;97.80
7232;DHT22;3657;49.630;11.018;2023-09-30T01:26:46;19.10;98.40
7232;DHT22;3657;49.630;11.018;2023-09-30T01:29:14;19.10;98.50
7232;DHT22;3657;49.630;11.018;2023-09-30T01:31:40;19.10;97.20
7232;DHT22;3657;49.630;11.018;2023-09-30T01:34:07;19.10;97.10
7232;DHT22;3657;49.630;11.018;2023-09-30T01:36:36;19.10;97.10
7232;DHT22;3657;49.630;11.018;2023-09-30T01:39:04;19.10;97.70
7232;DHT22;3657;49.630;11.018;2023-09-30T01:41:32;19.10;97.20
7232;DHT22;3657;49.630;11.018;2023-09-30T01:43:59;19.00;98.00
7232;DHT22;3657;49.630;11.018;2023-09-30T01:46:26;19.00;97.70
7232;DHT22;3657;49.630;11.018;2023-09-30T01:48:53;19.00;98.20
7232;DHT22;3657;49.630;11.018;2023-09-30T01:51:19;19.00;97.80
7232;DHT22;3657;49.630;11.018;2023-09-30T01:53:47;18.90;99.90
7232;DHT22;3657;49.630;11.018;2023-09-30T01:56:15;18.90;98.90
7232;DHT22;3657;49.630;11.018;2023-09-30T01:58:42;18.90;99.90
7232;DHT22;3657;49.630;11.018;2023-09-30T02:01:09;18.80;98.60
7232;DHT22;3657;49.630;11.018;2023-09-30T02:03:36;18.80;99.90
7232;DHT22;3657;49.630;11.018;2023-09-30T02:06:02;18.80;98.60
7232;DHT22;3657;49.630;11.018;2023-09-30T02:08:30;18.80;99.30
7232;DHT22;3657;49.630;11.018;2023-09-30T02:10:57;18.80;99.00
7232;DHT22;3657;49.630;11.018;2023-09-30T02:13:25;18.90;98.30
7232;DHT22;3657;49.630;11.018;2023-09-30T02:15:52;18.90;98.90
7232;DHT22;3657;49.630;11.018;2023-09-30T02:18:20;18.90;98.30
7232;DHT22;3657;49.630;11.018;2023-09-30T02:20:47;18.90;98.20
7232;DHT22;3657;49.630;11.018;2023-09-30T02:23:15;19.00;98.40
7232;DHT22;3657;49.630;11.018;2023-09-30T02:25:42;18.90;98.20
7232;DHT22;3657;49.630;11.018;2023-09-30T02:28:09;18.90;98.20
7232;DHT22;3657;49.630;11.018;2023-09-30T02:30:37;18.90;98.40
7232;DHT22;3657;49.630;11.018;2023-09-30T02:33:05;18.90;98.20
7232;DHT22;3657;49.630;11.018;2023-09-30T02:35:32;19.00;98.30
7232;DHT22;3657;49.630;11.018;2023-09-30T02:37:59;18.90;98.30
7232;DHT22;3657;49.630;11.018;2023-09-30T02:40:26;18.90;99.90
7232;DHT22;3657;49.630;11.018;2023-09-30T02:42:52;18.90;99.90
7232;DHT22;3657;49.630;11.018;2023-09-30T02:45:19;18.80;99.90
7232;DHT22;3657;49.630;11.018;2023-09-30T02:47:48;18.70;99.90
7232;DHT22;3657;49.630;11.018;2023-09-30T02:50:15;18.50;99.90
7232;DHT22;3657;49.630;11.018;2023-09-30T02:52:42;18.40;99.90
7232;DHT22;3657;49.630;11.018;2023-09-30T02:55:09;18.40;99.90
7232;DHT22;3657;49.630;11.018;2023-09-30T02:57:36;18.40;99.90
7232;DHT22;3657;49.630;11.018;2023-09-30T03:00:03;18.50;99.90
7232;DHT22;3657;49.630;11.018;2023-09-30T03:02:38;18.50;99.90
7232;DHT22;3657;49.630;11.018;2023-09-30T03:05:06;18.30;99.90
7232;DHT22;3657;49.630;11.018;2023-09-30T03:07:33;18.30;99.90
7232;DHT22;3657;49.630;11.018;2023-09-30T03:10:00;18.40;99.90
7232;DHT22;3657;49.630;11.018;2023-09-30T03:12:30;18.40;99.90
7232;DHT22;3657;49.630;11.018;2023-09-30T03:14:57;18.30;99.90
7232;DHT22;3657;49.630;11.018;2023-09-30T03:17:24;18.30;99.90
7232;DHT22;3657;49.630;11.018;2023-09-30T03:19:51;18.40;99.90
7232;DHT22;3657;49.630;11.018;2023-09-30T03:22:20;18.20;99.90
7232;DHT22;3657;49.630;11.018;2023-09-30T03:24:47;18.20;99.90
7232;DHT22;3657;49.630;11.018;2023-09-30T03:27:14;18.20;99.90
7232;DHT22;3657;49.630;11.018;2023-09-30T03:29:41;18.20;99.90
7232;DHT22;3657;49.630;11.018;2023-09-30T03:32:07;18.20;99.90
7232;DHT22;3657;49.630;11.018;2023-09-30T03:34:34;18.20;99.90
7232;DHT22;3657;49.630;11.018;2023-09-30T03:37:02;18.30;99.90
7232;DHT22;3657;49.630;11.018;2023-09-30T03:39:33;18.20;99.90
7232;DHT22;3657;49.630;11.018;2023-09-30T03:41:59;18.10;99.90
7232;DHT22;3657;49.630;11.018;2023-09-30T03:44:26;18.10;99.90
7232;DHT22;3657;49.630;11.018;2023-09-30T03:46:53;18.20;99.90
7232;DHT22;3657;49.630;11.018;2023-09-30T03:49:20;18.10;99.90
7232;DHT22;3657;49.630;11.018;2023-09-30T03:51:47;18.00;99.90
7232;DHT22;3657;49.630;11.018;2023-09-30T03:54:16;18.10;99.90
7232;DHT22;3657;49.630;11.018;2023-09-30T03:56:45;18.00;99.90
7232;DHT22;3657;49.630;11.018;2023-09-30T03:59:12;18.10;99.90
7232;DHT22;3657;49.630;11.018;2023-09-30T04:01:38;18.20;99.90
7232;DHT22;3657;49.630;11.018;2023-09-30T04:04:06;18.20;99.90
7232;DHT22;3657;49.630;11.018;2023-09-30T04:06:34;18.10;99.90
7232;DHT22;3657;49.630;11.018;2023-09-30T04:09:03;18.20;99.90
7232;DHT22;3657;49.630;11.018;2023-09-30T04:11:35;18.20;99.90
7232;DHT22;3657;49.630;11.018;2023-09-30T04:14:03;18.00;99.90
7232;DHT22;3657;49.630;11.018;2023-09-30T04:16:31;18.00;99.90
7232;DHT22;3657;49.630;11.018;2023-09-30T04:18:58;18.00;99.90
7232;DHT22;3657;49.630;11.018;2023-09-30T04:21:25;18.00;99.90
7232;DHT22;3657;49.630;11.018;2023-09-30T04:23:53;17.90;99.90
7232;DHT22;3657;49.630;11.018;2023-09-30T04:26:20;18.00;99.90
7232;DHT22;3657;49.630;11.018;2023-09-30T04:28:46;18.00;99.90
7232;DHT22;3657;49.630;11.018;2023-09-30T04:31:14;18.10;99.90
7232;DHT22;3657;49.630;11.018;2023-09-30T04:33:41;18.10;99.90
7232;DHT22;3657;49.630;11.018;2023-09-30T04:36:08;18.10;99.90
7232;DHT22;3657;49.630;11.018;2023-09-30T04:38:36;18.10;99.90
7232;DHT22;3657;49.630;11.018;2023-09-30T04:41:04;18.00;99.90
7232;DHT22;3657;49.630;11.018;2023-09-30T04:43:32;18.10;99.90
7232;DHT22;3657;49.630;11.018;2023-09-30T04:45:59;18.10;99.90
7232;DHT22;3657;49.630;11.018;2023-09-30T04:48:28;18.00;99.90
7232;DHT22;3657;49.630;11.018;2023-09-30T04:50:54;18.00;99.90
7232;DHT22;3657;49.630;11.018;2023-09-30T04:53:21;17.90;99.90
7232;DHT22;3657;49.630;11.018;2023-09-30T04:55:49;17.70;99.90
7232;DHT22;3657;49.630;11.018;2023-09-30T04:58:16;17.60;99.90
7232;DHT22;3657;49.630;11.018;2023-09-30T05:00:43;17.60;99.90
7232;DHT22;3657;49.630;11.018;2023-09-30T05:03:10;17.70;99.90
7232;DHT22;3657;49.630;11.018;2023-09-30T05:05:38;17.70;99.90
7232;DHT22;3657;49.630;11.018;2023-09-30T05:08:05;17.70;99.90
7232;DHT22;3657;49.630;11.018;2023-09-30T05:10:32;17.70;99.90
7232;DHT22;3657;49.630;11.018;2023-09-30T05:12:59;17.80;99.90
7232;DHT22;3657;49.630;11.018;2023-09-30T05:15:26;17.80;99.90
7232;DHT22;3657;49.630;11.018;2023-09-30T05:17:54;17.90;99.90
7232;DHT22;3657;49.630;11.018;2023-09-30T05:20:21;17.90;99.90
7232;DHT22;3657;49.630;11.018;2023-09-30T05:22:49;17.90;99.90
7232;DHT22;3657;49.630;11.018;2023-09-30T05:25:17;17.90;99.90
7232;DHT22;3657;49.630;11.018;2023-09-30T05:27:43;17.90;99.90
7232;DHT22;3657;49.630;11.018;2023-09-30T05:30:11;17.90;99.90
7232;DHT22;3657;49.630;11.018;2023-09-30T05:32:40;17.90;99.90
7232;DHT22;3657;49.630;11.018;2023-09-30T05:35:08;17.90;99.90
7232;DHT22;3657;49.630;11.018;2023-09-30T05:37:39;17.90;99.90
7232;DHT22;3657;49.630;11.018;2023-09-30T05:40:08;17.90;99.90
7232;DHT22;3657;49.630;11.018;2023-09-30T05:42:42;18.00;99.90
7232;DHT22;3657;49.630;11.018;2023-09-30T05:45:10;17.90;99.90
7232;DHT22;3657;49.630;11.018;2023-09-30T05:47:38;17.90;99.90
7232;DHT22;3657;49.630;11.018;2023-09-30T05:50:06;17.90;99.90
7232;DHT22;3657;49.630;11.018;2023-09-30T05:52:33;17.90;99.90
7232;DHT22;3657;49.630;11.018;2023-09-30T05:55:00;17.90;99.90
7232;DHT22;3657;49.630;11.018;2023-09-30T05:57:28;17.90;99.90
7232;DHT22;3657;49.630;11.018;2023-09-30T05:59:55;17.90;99.90
7232;DHT22;3657;49.630;11.018;2023-09-30T06:02:22;17.90;99.90
7232;DHT22;3657;49.630;11.018;2023-09-30T06:04:49;17.80;99.90
7232;DHT22;3657;49.630;11.018;2023-09-30T06:07:18;17.80;99.90
7232;DHT22;3657;49.630;11.018;2023-09-30T06:09:45;17.80;99.90
7232;DHT22;3657;49.630;11.018;2023-09-30T06:12:13;17.80;99.90
7232;DHT22;3657;49.630;11.018;2023-09-30T06:14:41;17.80;99.90
7232;DHT22;3657;49.630;11.018;2023-09-30T06:17:09;17.80;99.90
7232;DHT22;3657;49.630;11.018;2023-09-30T06:19:35;17.80;99.90
7232;DHT22;3657;49.630;11.018;2023-09-30T06:22:03;17.80;99.90
7232;DHT22;3657;49.630;11.018;2023-09-30T06:24:30;17.80;99.90
7232;DHT22;3657;49.630;11.018;2023-09-30T06:26:56;17.80;99.90
7232;DHT22;3657;49.630;11.018;2023-09-30T06:29:23;17.90;99.90
7232;DHT22;3657;49.630;11.018;2023-09-30T06:31:51;17.90;99.90
7232;DHT22;3657;49.630;11.018;2023-09-30T06:34:18;17.90;99.90
7232;DHT22;3657;49.630;11.018;2023-09-30T06:36:45;17.90;99.90
7232;DHT22;3657;49.630;11.018;2023-09-30T06:39:11;17.90;99.90
7232;DHT22;3657;49.630;11.018;2023-09-30T06:41:38;17.90;99.90
7232;DHT22;3657;49.630;11.018;2023-09-30T06:44:05;17.90;99.90
7232;DHT22;3657;49.630;11.018;2023-09-30T06:46:32;17.90;99.90
7232;DHT22;3657;49.630;11.018;2023-09-30T06:49:01;18.00;99.90
7232;DHT22;3657;49.630;11.018;2023-09-30T06:51:27;18.00;99.90
7232;DHT22;3657;49.630;11.018;2023-09-30T06:53:54;18.10;99.90
7232;DHT22;3657;49.630;11.018;2023-09-30T06:56:21;18.20;99.90
7232;DHT22;3657;49.630;11.018;2023-09-30T06:58:47;18.20;99.90
7232;DHT22;3657;49.630;11.018;2023-09-30T07:01:15;18.30;99.90
7232;DHT22;3657;49.630;11.018;2023-09-30T07:03:42;18.30;99.90
7232;DHT22;3657;49.630;11.018;2023-09-30T07:06:11;18.30;99.90
7232;DHT22;3657;49.630;11.018;2023-09-30T07:08:37;18.30;99.90
7232;DHT22;3657;49.630;11.018;2023-09-30T07:11:04;18.30;99.90
7232;DHT22;3657;49.630;11.018;2023-09-30T07:13:33;18.20;99.90
7232;DHT22;3657;49.630;11.018;2023-09-30T07:16:01;18.10;99.90
7232;DHT22;3657;49.630;11.018;2023-09-30T07:18:27;18.10;99.90
7232;DHT22;3657;49.630;11.018;2023-09-30T07:20:54;18.00;99.90
7232;DHT22;3657;49.630;11.018;2023-09-30T07:23:22;18.00;99.90
7232;DHT22;3657;49.630;11.018;2023-09-30T07:25:49;17.90;99.90
7232;DHT22;3657;49.630;11.018;2023-09-30T07:28:16;17.90;99.90
7232;DHT22;3657;49.630;11.018;2023-09-30T07:30:43;17.90;99.90
7232;DHT22;3657;49.630;11.018;2023-09-30T07:33:10;17.80;99.90
7232;DHT22;3657;49.630;11.018;2023-09-30T07:35:37;17.70;99.90
7232;DHT22;3657;49.630;11.018;2023-09-30T07:38:04;17.70;99.90
7232;DHT22;3657;49.630;11.018;2023-09-30T07:40:33;17.60;99.90
7232;DHT22;3657;49.630;11.018;2023-09-30T07:42:59;17.60;99.90
7232;DHT22;3657;49.630;11.018;2023-09-30T07:45:26;17.70;99.90
7232;DHT22;3657;49.630;11.018;2023-09-30T07:47:53;17.60;99.90
7232;DHT22;3657;49.630;11.018;2023-09-30T07:50:20;17.70;99.90
7232;DHT22;3657;49.630;11.018;2023-09-30T07:52:47;17.80;99.90
7232;DHT22;3657;49.630;11.018;2023-09-30T07:55:14;17.90;99.90
7232;DHT22;3657;49.630;11.018;2023-09-30T07:57:42;17.90;99.90
7232;DHT22;3657;49.630;11.018;2023-09-30T08:00:10;18.00;99.90
7232;DHT22;3657;49.630;11.018;2023-09-30T08:02:40;18.20;99.90
7232;DHT22;3657;49.630;11.018;2023-09-30T08:05:08;18.20;99.90
7232;DHT22;3657;49.630;11.018;2023-09-30T08:07:35;18.20;99.90
7232;DHT22;3657;49.630;11.018;2023-09-30T08:10:02;18.30;99.90
7232;DHT22;3657;49.630;11.018;2023-09-30T08:12:30;18.20;99.90
7232;DHT22;3657;49.630;11.018;2023-09-30T08:14:58;18.20;99.90
7232;DHT22;3657;49.630;11.018;2023-09-30T08:17:25;18.20;99.90
7232;DHT22;3657;49.630;11.018;2023-09-30T08:19:52;18.30;99.90
7232;DHT22;3657;49.630;11.018;2023-09-30T08:22:19;18.20;99.90
7232;DHT22;3657;49.630;11.018;2023-09-30T08:24:46;18.20;99.90
7232;DHT22;3657;49.630;11.018;2023-09-30T08:27:13;18.20;99.90
7232;DHT22;3657;49.630;11.018;2023-09-30T08:29:40;18.10;99.90
7232;DHT22;3657;49.630;11.018;2023-09-30T08:32:08;18.20;99.90
7232;DHT22;3657;49.630;11.018;2023-09-30T08:34:35;18.20;99.90
7232;DHT22;3657;49.630;11.018;2023-09-30T08:37:02;18.20;99.90
7232;DHT22;3657;49.630;11.018;2023-09-30T08:39:29;18.30;99.90
7232;DHT22;3657;49.630;11.018;2023-09-30T08:41:56;18.40;99.90
7232;DHT22;3657;49.630;11.018;2023-09-30T08:44:23;18.50;99.90
7232;DHT22;3657;49.630;11.018;2023-09-30T08:46:52;18.70;99.90
7232;DHT22;3657;49.630;11.018;2023-09-30T08:49:22;18.80;99.90
7232;DHT22;3657;49.630;11.018;2023-09-30T08:51:49;18.90;99.90
7232;DHT22;3657;49.630;11.018;2023-09-30T08:54:17;19.00;99.90
7232;DHT22;3657;49.630;11.018;2023-09-30T08:56:45;19.10;99.90
7232;DHT22;3657;49.630;11.018;2023-09-30T08:59:15;19.30;99.90
7232;DHT22;3657;49.630;11.018;2023-09-30T09:01:41;19.50;99.90
7232;DHT22;3657;49.630;11.018;2023-09-30T09:04:08;19.70;99.90
7232;DHT22;3657;49.630;11.018;2023-09-30T09:06:37;19.70;99.90
7232;DHT22;3657;49.630;11.018;2023-09-30T09:09:13;19.70;99.90
7232;DHT22;3657;49.630;11.018;2023-09-30T09:11:40;19.60;99.90
7232;DHT22;3657;49.630;11.018;2023-09-30T09:14:06;19.70;99.90
7232;DHT22;3657;49.630;11.018;2023-09-30T09:16:34;19.70;99.90
7232;DHT22;3657;49.630;11.018;2023-09-30T09:19:13;19.70;99.90
7232;DHT22;3657;49.630;11.018;2023-09-30T09:21:53;20.00;99.90
7232;DHT22;3657;49.630;11.018;2023-09-30T09:24:27;20.20;99.90
7232;DHT22;3657;49.630;11.018;2023-09-30T09:27:03;20.30;99.90
7232;DHT22;3657;49.630;11.018;2023-09-30T09:29:30;20.50;99.90
7232;DHT22;3657;49.630;11.018;2023-09-30T09:32:07;20.70;99.90
7232;DHT22;3657;49.630;11.018;2023-09-30T09:34:34;20.90;99.90
7232;DHT22;3657;49.630;11.018;2023-09-30T09:37:13;21.00;99.90
7232;DHT22;3657;49.630;11.018;2023-09-30T09:39:40;21.10;99.90
7232;DHT22;3657;49.630;11.018;2023-09-30T09:42:10;21.10;99.90
7232;DHT22;3657;49.630;11.018;2023-09-30T09:44:37;21.20;99.90
7232;DHT22;3657;49.630;11.018;2023-09-30T09:47:05;21.10;99.90
7232;DHT22;3657;49.630;11.018;2023-09-30T09:49:32;20.90;99.90
7232;DHT22;3657;49.630;11.018;2023-09-30T09:52:02;20.70;99.90
7232;DHT22;3657;49.630;11.018;2023-09-30T09:54:29;20.70;99.90
7232;DHT22;3657;49.630;11.018;2023-09-30T09:56:59;20.70;99.90
7232;DHT22;3657;49.630;11.018;2023-09-30T09:59:27;20.70;99.90
7232;DHT22;3657;49.630;11.018;2023-09-30T10:01:54;20.70;99.90
7232;DHT22;3657;49.630;11.018;2023-09-30T10:04:21;20.60;99.90
7232;DHT22;3657;49.630;11.018;2023-09-30T10:06:52;20.60;99.90
7232;DHT22;3657;49.630;11.018;2023-09-30T10:09:22;20.50;99.90
7232;DHT22;3657;49.630;11.018;2023-09-30T10:11:49;20.50;99.90
7232;DHT22;3657;49.630;11.018;2023-09-30T10:14:30;20.50;99.90
7232;DHT22;3657;49.630;11.018;2023-09-30T10:16:58;20.40;99.90
7232;DHT22;3657;49.630;11.018;2023-09-30T10:19:25;20.50;99.90
7232;DHT22;3657;49.630;11.018;2023-09-30T10:22:21;20.40;99.90
7232;DHT22;3657;49.630;11.018;2023-09-30T10:24:50;20.30;99.90
7232;DHT22;3657;49.630;11.018;2023-09-30T10:27:32;20.20;99.90
7232;DHT22;3657;49.630;11.018;2023-09-30T10:30:06;20.30;99.90
7232;DHT22;3657;49.630;11.018;2023-09-30T10:33:12;20.40;99.90
7232;DHT22;3657;49.630;11.018;2023-09-30T10:35:47;20.30;99.90
7232;DHT22;3657;49.630;11.018;2023-09-30T10:38:36;20.40;99.90
7232;DHT22;3657;49.630;11.018;2023-09-30T10:41:04;20.50;99.90
7232;DHT22;3657;49.630;11.018;2023-09-30T10:43:34;20.60;99.90
7232;DHT22;3657;49.630;11.018;2023-09-30T10:46:02;20.40;99.90
7232;DHT22;3657;49.630;11.018;2023-09-30T10:48:35;20.50;99.90
7232;DHT22;3657;49.630;11.018;2023-09-30T10:51:02;20.50;99.90
7232;DHT22;3657;49.630;11.018;2023-09-30T10:53:41;20.60;99.90
7232;DHT22;3657;49.630;11.018;2023-09-30T10:56:09;20.70;99.90
7232;DHT22;3657;49.630;11.018;2023-09-30T10:58:40;20.70;99.90
7232;DHT22;3657;49.630;11.018;2023-09-30T11:01:08;20.90;99.90
7232;DHT22;3657;49.630;11.018;2023-09-30T11:03:35;20.90;99.90
7232;DHT22;3657;49.630;11.018;2023-09-30T11:06:02;21.00;99.90
7232;DHT22;3657;49.630;11.018;2023-09-30T11:08:29;21.20;99.90
7232;DHT22;3657;49.630;11.018;2023-09-30T11:10:56;21.30;99.90
7232;DHT22;3657;49.630;11.018;2023-09-30T11:13:31;21.50;99.90
7232;DHT22;3657;49.630;11.018;2023-09-30T11:16:02;21.50;99.60
7232;DHT22;3657;49.630;11.018;2023-09-30T11:18:30;21.50;99.90
7232;DHT22;3657;49.630;11.018;2023-09-30T11:21:08;21.60;99.90
7232;DHT22;3657;49.630;11.018;2023-09-30T11:23:36;21.80;99.90
7232;DHT22;3657;49.630;11.018;2023-09-30T11:26:04;22.10;99.90
7232;DHT22;3657;49.630;11.018;2023-09-30T11:28:39;22.40;99.90
7232;DHT22;3657;49.630;11.018;2023-09-30T11:31:11;22.70;99.90
7232;DHT22;3657;49.630;11.018;2023-09-30T11:33:50;22.90;99.40
7232;DHT22;3657;49.630;11.018;2023-09-30T11:36:18;22.80;97.40
7232;DHT22;3657;49.630;11.018;2023-09-30T11:38:46;22.70;99.90
7232;DHT22;3657;49.630;11.018;2023-09-30T11:41:14;22.80;99.60
7232;DHT22;3657;49.630;11.018;2023-09-30T11:46:50;22.90;99.00
7232;DHT22;3657;49.630;11.018;2023-09-30T11:49:28;22.90;99.90
7232;DHT22;3657;49.630;11.018;2023-09-30T11:51:56;22.80;99.90
7232;DHT22;3657;49.630;11.018;2023-09-30T11:54:29;22.90;99.90
7232;DHT22;3657;49.630;11.018;2023-09-30T11:56:56;22.90;99.90
7232;DHT22;3657;49.630;11.018;2023-09-30T11:59:22;23.00;99.90
7232;DHT22;3657;49.630;11.018;2023-09-30T12:01:51;23.00;99.90
7232;DHT22;3657;49.630;11.018;2023-09-30T12:04:18;23.10;99.90
7232;DHT22;3657;49.630;11.018;2023-09-30T12:06:45;23.20;99.90
7232;DHT22;3657;49.630;11.018;2023-09-30T12:09:13;23.30;99.90
7232;DHT22;3657;49.630;11.018;2023-09-30T12:11:42;23.40;99.90
7232;DHT22;3657;49.630;11.018;2023-09-30T12:14:10;23.40;99.90
7232;DHT22;3657;49.630;11.018;2023-09-30T12:16:38;23.50;99.90
7232;DHT22;3657;49.630;11.018;2023-09-30T12:19:06;23.60;99.90
7232;DHT22;3657;49.630;11.018;2023-09-30T12:21:32;23.60;99.90
7232;DHT22;3657;49.630;11.018;2023-09-30T12:23:59;23.70;99.90
7232;DHT22;3657;49.630;11.018;2023-09-30T12:26:27;23.70;99.90
7232;DHT22;3657;49.630;11.018;2023-09-30T12:28:54;23.80;99.90
7232;DHT22;3657;49.630;11.018;2023-09-30T12:31:20;23.90;99.90
7232;DHT22;3657;49.630;11.018;2023-09-30T12:33:47;24.00;99.90
7232;DHT22;3657;49.630;11.018;2023-09-30T12:36:18;24.10;99.90
7232;DHT22;3657;49.630;11.018;2023-09-30T12:38:44;24.20;99.90
7232;DHT22;3657;49.630;11.018;2023-09-30T12:41:12;24.40;99.90
7232;DHT22;3657;49.630;11.018;2023-09-30T12:43:39;24.50;99.90
7232;DHT22;3657;49.630;11.018;2023-09-30T12:46:07;24.60;99.90
7232;DHT22;3657;49.630;11.018;2023-09-30T12:48:34;24.70;99.70
7232;DHT22;3657;49.630;11.018;2023-09-30T12:51:01;24.70;99.40
7232;DHT22;3657;49.630;11.018;2023-09-30T12:53:31;24.80;99.50
7232;DHT22;3657;49.630;11.018;2023-09-30T12:55:57;24.70;96.60
7232;DHT22;3657;49.630;11.018;2023-09-30T12:58:25;24.80;99.10
7232;DHT22;3657;49.630;11.018;2023-09-30T13:00:53;24.90;99.10
7232;DHT22;3657;49.630;11.018;2023-09-30T13:03:20;24.90;99.00
7232;DHT22;3657;49.630;11.018;2023-09-30T13:05:46;25.00;98.90
7232;DHT22;3657;49.630;11.018;2023-09-30T13:08:13;25.00;98.70
7232;DHT22;3657;49.630;11.018;2023-09-30T13:10:41;25.00;98.40
7232;DHT22;3657;49.630;11.018;2023-09-30T13:13:09;25.10;98.70
7232;DHT22;3657;49.630;11.018;2023-09-30T13:15:36;25.00;98.10
7232;DHT22;3657;49.630;11.018;2023-09-30T13:18:04;25.10;98.30
7232;DHT22;3657;49.630;11.018;2023-09-30T13:20:31;25.10;97.90
7232;DHT22;3657;49.630;11.018;2023-09-30T13:22:58;25.20;97.80
7232;DHT22;3657;49.630;11.018;2023-09-30T13:25:26;25.30;98.00
7232;DHT22;3657;49.630;11.018;2023-09-30T13:27:55;25.30;98.00
7232;DHT22;3657;49.630;11.018;2023-09-30T13:30:21;25.30;97.70
7232;DHT22;3657;49.630;11.018;2023-09-30T13:32:48;25.40;96.20
7232;DHT22;3657;49.630;11.018;2023-09-30T13:35:15;25.30;96.50
7232;DHT22;3657;49.630;11.018;2023-09-30T13:37:42;25.20;96.60
7232;DHT22;3657;49.630;11.018;2023-09-30T13:40:09;25.30;97.20
7232;DHT22;3657;49.630;11.018;2023-09-30T13:42:38;25.30;97.40
7232;DHT22;3657;49.630;11.018;2023-09-30T13:45:08;25.30;97.30
7232;DHT22;3657;49.630;11.018;2023-09-30T13:47:35;25.30;97.20
7232;DHT22;3657;49.630;11.018;2023-09-30T13:50:02;25.30;97.20
7232;DHT22;3657;49.630;11.018;2023-09-30T13:52:32;25.10;97.10
7232;DHT22;3657;49.630;11.018;2023-09-30T13:54:59;25.20;96.90
7232;DHT22;3657;49.630;11.018;2023-09-30T13:57:26;25.20;96.90
7232;DHT22;3657;49.630;11.018;2023-09-30T13:59:52;25.20;96.50
7232;DHT22;3657;49.630;11.018;2023-09-30T14:02:20;25.30;96.70
7232;DHT22;3657;49.630;11.018;2023-09-30T14:04:48;25.20;96.30
7232;DHT22;3657;49.630;11.018;2023-09-30T14:07:15;25.20;96.40
7232;DHT22;3657;49.630;11.018;2023-09-30T14:09:43;25.10;96.20
7232;DHT22;3657;49.630;11.018;2023-09-30T14:12:10;25.10;96.30
7232;DHT22;3657;49.630;11.018;2023-09-30T14:14:37;25.10;96.10
7232;DHT22;3657;49.630;11.018;2023-09-30T14:17:04;25.10;96.00
7232;DHT22;3657;49.630;11.018;2023-09-30T14:19:34;25.20;95.50
7232;DHT22;3657;49.630;11.018;2023-09-30T14:22:01;25.20;95.20
7232;DHT22;3657;49.630;11.018;2023-09-30T14:24:29;25.20;95.50
7232;DHT22;3657;49.630;11.018;2023-09-30T14:26:56;25.00;95.30
7232;DHT22;3657;49.630;11.018;2023-09-30T14:29:22;24.90;95.60
7232;DHT22;3657;49.630;11.018;2023-09-30T14:31:50;24.90;95.50
7232;DHT22;3657;49.630;11.018;2023-09-30T14:34:17;24.80;95.40
7232;DHT22;3657;49.630;11.018;2023-09-30T14:36:45;24.70;95.40
7232;DHT22;3657;49.630;11.018;2023-09-30T14:39:12;24.70;95.40
7232;DHT22;3657;49.630;11.018;2023-09-30T14:41:41;24.60;95.50
7232;DHT22;3657;49.630;11.018;2023-09-30T14:44:08;24.60;95.40
7232;DHT22;3657;49.630;11.018;2023-09-30T14:46:36;24.50;95.60
7232;DHT22;3657;49.630;11.018;2023-09-30T14:49:03;24.40;95.30
7232;DHT22;3657;49.630;11.018;2023-09-30T14:51:31;24.40;95.40
7232;DHT22;3657;49.630;11.018;2023-09-30T14:53:59;24.30;95.30
7232;DHT22;3657;49.630;11.018;2023-09-30T14:56:26;24.30;95.30
7232;DHT22;3657;49.630;11.018;2023-09-30T14:58:52;24.30;95.40
7232;DHT22;3657;49.630;11.018;2023-09-30T15:01:20;24.20;95.20
7232;DHT22;3657;49.630;11.018;2023-09-30T15:03:47;24.20;95.20
7232;DHT22;3657;49.630;11.018;2023-09-30T15:06:14;24.10;95.20
7232;DHT22;3657;49.630;11.018;2023-09-30T15:08:40;24.00;95.20
7232;DHT22;3657;49.630;11.018;2023-09-30T15:11:13;24.00;95.10
7232;DHT22;3657;49.630;11.018;2023-09-30T15:13:41;23.90;95.00
7232;DHT22;3657;49.630;11.018;2023-09-30T15:16:15;23.80;94.90
7232;DHT22;3657;49.630;11.018;2023-09-30T15:18:41;23.80;95.00
7232;DHT22;3657;49.630;11.018;2023-09-30T15:21:08;23.70;94.80
7232;DHT22;3657;49.630;11.018;2023-09-30T15:23:35;23.70;94.90
7232;DHT22;3657;49.630;11.018;2023-09-30T15:26:01;23.60;94.90
7232;DHT22;3657;49.630;11.018;2023-09-30T15:28:29;23.60;94.90
7232;DHT22;3657;49.630;11.018;2023-09-30T15:30:56;23.50;94.90
7232;DHT22;3657;49.630;11.018;2023-09-30T15:33:23;23.40;94.90
7232;DHT22;3657;49.630;11.018;2023-09-30T15:35:50;23.40;95.00
7232;DHT22;3657;49.630;11.018;2023-09-30T15:38:17;23.30;94.90
7232;DHT22;3657;49.630;11.018;2023-09-30T15:40:51;23.20;95.00
7232;DHT22;3657;49.630;11.018;2023-09-30T15:43:18;23.20;95.00
7232;DHT22;3657;49.630;11.018;2023-09-30T15:45:46;23.10;94.90
7232;DHT22;3657;49.630;11.018;2023-09-30T15:48:13;23.10;94.90
7232;DHT22;3657;49.630;11.018;2023-09-30T15:50:40;23.00;94.90
7232;DHT22;3657;49.630;11.018;2023-09-30T15:53:06;22.90;94.90